<?xml version="1.0" encoding="UTF-8" standalone="no" ?>
<gpx xmlns="http://www.topografix.com/GPX/1/1" xmlns:xsi="http://www.w3.org/2001/XMLSchema-instance" xsi:schemaLocation="http://www.topografix.com/GPX/1/1 http://www.topografix.com/GPX/1/1/gpx.xsd" version="1.1" creator="VisuGPX - https://www.visugpx.com">
  <metadata>
    <name>Oytier st Oblas</name>
    <desc><![CDATA[Boucle d\'une journée ]]></desc>
  </metadata>
  <trk>
    <name><![CDATA[rando oytier 270408]]></name>
    <trkseg>
      <trkpt lat="45.53474" lon="5.0338">
        <ele>374.5</ele>
        <time>2008-05-21T19:55:44Z</time>
      </trkpt>
      <trkpt lat="45.53396" lon="5.03334">
        <ele>377.5</ele>
        <time>2008-05-21T19:55:46Z</time>
      </trkpt>
      <trkpt lat="45.53373" lon="5.03298">
        <ele>377.7</ele>
        <time>2008-05-21T19:55:53Z</time>
      </trkpt>
      <trkpt lat="45.53313" lon="5.03231">
        <ele>375.4</ele>
        <time>2008-05-21T19:56:17Z</time>
      </trkpt>
      <trkpt lat="45.53234" lon="5.03179">
        <ele>371.4</ele>
        <time>2008-05-21T19:56:20Z</time>
      </trkpt>
      <trkpt lat="45.53126" lon="5.0309">
        <ele>368.5</ele>
        <time>2008-05-21T19:56:21Z</time>
      </trkpt>
      <trkpt lat="45.53139" lon="5.02995">
        <ele>369</ele>
        <time>2008-05-21T19:56:25Z</time>
      </trkpt>
      <trkpt lat="45.53184" lon="5.0284">
        <ele>368.4</ele>
        <time>2008-05-21T19:56:26Z</time>
      </trkpt>
      <trkpt lat="45.53213" lon="5.02752">
        <ele>368.6</ele>
        <time>2008-05-21T19:56:28Z</time>
      </trkpt>
      <trkpt lat="45.53205" lon="5.02691">
        <ele>372.1</ele>
        <time>2008-05-21T19:56:29Z</time>
      </trkpt>
      <trkpt lat="45.53185" lon="5.02603">
        <ele>375.8</ele>
        <time>2008-05-21T19:56:30Z</time>
      </trkpt>
      <trkpt lat="45.53162" lon="5.02519">
        <ele>380.5</ele>
        <time>2008-05-21T19:56:40Z</time>
      </trkpt>
      <trkpt lat="45.5315" lon="5.02475">
        <ele>382.7</ele>
        <time>2008-05-21T19:57:40Z</time>
      </trkpt>
      <trkpt lat="45.53135" lon="5.02413">
        <ele>384</ele>
        <time>2008-05-21T19:57:45Z</time>
      </trkpt>
      <trkpt lat="45.53139" lon="5.02362">
        <ele>385</ele>
        <time>2008-05-21T19:57:46Z</time>
      </trkpt>
      <trkpt lat="45.53158" lon="5.02219">
        <ele>381.4</ele>
        <time>2008-05-21T19:57:48Z</time>
      </trkpt>
      <trkpt lat="45.53132" lon="5.02173">
        <ele>378.7</ele>
        <time>2008-05-21T19:57:52Z</time>
      </trkpt>
      <trkpt lat="45.53082" lon="5.02097">
        <ele>373.4</ele>
        <time>2008-05-21T19:57:53Z</time>
      </trkpt>
      <trkpt lat="45.53021" lon="5.02017">
        <ele>367.3</ele>
        <time>2008-05-21T19:57:55Z</time>
      </trkpt>
      <trkpt lat="45.52979" lon="5.01993">
        <ele>363.2</ele>
        <time>2008-05-21T19:57:57Z</time>
      </trkpt>
      <trkpt lat="45.52923" lon="5.01977">
        <ele>361.6</ele>
        <time>2008-05-21T19:57:59Z</time>
      </trkpt>
      <trkpt lat="45.52858" lon="5.01977">
        <ele>361.7</ele>
        <time>2008-05-21T19:58:00Z</time>
      </trkpt>
      <trkpt lat="45.52794" lon="5.0199">
        <ele>360.4</ele>
        <time>2008-05-21T19:58:02Z</time>
      </trkpt>
      <trkpt lat="45.52754" lon="5.01985">
        <ele>357.7</ele>
        <time>2008-05-21T19:58:03Z</time>
      </trkpt>
      <trkpt lat="45.52703" lon="5.01947">
        <ele>354.4</ele>
        <time>2008-05-21T19:58:05Z</time>
      </trkpt>
      <trkpt lat="45.5265" lon="5.01916">
        <ele>350.7</ele>
        <time>2008-05-21T19:58:07Z</time>
      </trkpt>
      <trkpt lat="45.52614" lon="5.01908">
        <ele>347</ele>
        <time>2008-05-21T19:58:09Z</time>
      </trkpt>
      <trkpt lat="45.52566" lon="5.0195">
        <ele>339.7</ele>
        <time>2008-05-21T19:58:11Z</time>
      </trkpt>
      <trkpt lat="45.52505" lon="5.01944">
        <ele>330.7</ele>
        <time>2008-05-21T19:58:12Z</time>
      </trkpt>
      <trkpt lat="45.52452" lon="5.01916">
        <ele>324.8</ele>
        <time>2008-05-21T19:58:24Z</time>
      </trkpt>
      <trkpt lat="45.52385" lon="5.01868">
        <ele>315</ele>
        <time>2008-05-21T19:58:25Z</time>
      </trkpt>
      <trkpt lat="45.52323" lon="5.01836">
        <ele>309.8</ele>
        <time>2008-05-21T19:58:27Z</time>
      </trkpt>
      <trkpt lat="45.52272" lon="5.01811">
        <ele>305.5</ele>
        <time>2008-05-21T19:58:29Z</time>
      </trkpt>
      <trkpt lat="45.52211" lon="5.01808">
        <ele>303.7</ele>
        <time>2008-05-21T19:58:30Z</time>
      </trkpt>
      <trkpt lat="45.52128" lon="5.01791">
        <ele>295.5</ele>
        <time>2008-05-21T19:58:31Z</time>
      </trkpt>
      <trkpt lat="45.52061" lon="5.01775">
        <ele>283.7</ele>
        <time>2008-05-21T19:58:33Z</time>
      </trkpt>
      <trkpt lat="45.52003" lon="5.01747">
        <ele>280</ele>
        <time>2008-05-21T19:58:34Z</time>
      </trkpt>
      <trkpt lat="45.51946" lon="5.01715">
        <ele>279.9</ele>
        <time>2008-05-21T19:58:36Z</time>
      </trkpt>
      <trkpt lat="45.51888" lon="5.0168">
        <ele>276.9</ele>
        <time>2008-05-21T19:58:38Z</time>
      </trkpt>
      <trkpt lat="45.51859" lon="5.01675">
        <ele>275.6</ele>
        <time>2008-05-21T19:58:39Z</time>
      </trkpt>
      <trkpt lat="45.51798" lon="5.01682">
        <ele>273.3</ele>
        <time>2008-05-21T19:58:41Z</time>
      </trkpt>
      <trkpt lat="45.5175" lon="5.01715">
        <ele>271.3</ele>
        <time>2008-05-21T19:59:02Z</time>
      </trkpt>
      <trkpt lat="45.51695" lon="5.01738">
        <ele>270</ele>
        <time>2008-05-21T19:59:04Z</time>
      </trkpt>
      <trkpt lat="45.51614" lon="5.01763">
        <ele>266.7</ele>
        <time>2008-05-21T19:59:05Z</time>
      </trkpt>
      <trkpt lat="45.51578" lon="5.01742">
        <ele>265.8</ele>
        <time>2008-05-21T19:59:06Z</time>
      </trkpt>
      <trkpt lat="45.51512" lon="5.01691">
        <ele>264.3</ele>
        <time>2008-05-21T19:59:09Z</time>
      </trkpt>
      <trkpt lat="45.51446" lon="5.017">
        <ele>262.8</ele>
        <time>2008-05-21T19:59:17Z</time>
      </trkpt>
      <trkpt lat="45.51384" lon="5.01694">
        <ele>263.8</ele>
        <time>2008-05-21T19:59:18Z</time>
      </trkpt>
      <trkpt lat="45.51305" lon="5.01677">
        <ele>265.9</ele>
        <time>2008-05-21T19:59:20Z</time>
      </trkpt>
      <trkpt lat="45.51222" lon="5.01664">
        <ele>265.8</ele>
        <time>2008-05-21T19:59:21Z</time>
      </trkpt>
      <trkpt lat="45.51198" lon="5.01727">
        <ele>268.8</ele>
        <time>2008-05-21T19:59:35Z</time>
      </trkpt>
      <trkpt lat="45.51181" lon="5.01771">
        <ele>271.5</ele>
        <time>2008-05-21T19:59:36Z</time>
      </trkpt>
      <trkpt lat="45.51162" lon="5.01834">
        <ele>279.4</ele>
        <time>2008-05-21T19:59:37Z</time>
      </trkpt>
      <trkpt lat="45.51154" lon="5.01868">
        <ele>282.6</ele>
        <time>2008-05-21T19:59:39Z</time>
      </trkpt>
      <trkpt lat="45.51156" lon="5.01901">
        <ele>284.9</ele>
        <time>2008-05-21T19:59:40Z</time>
      </trkpt>
      <trkpt lat="45.51188" lon="5.01956">
        <ele>289.5</ele>
        <time>2008-05-21T19:59:41Z</time>
      </trkpt>
      <trkpt lat="45.51205" lon="5.02012">
        <ele>292.5</ele>
        <time>2008-05-21T19:59:42Z</time>
      </trkpt>
      <trkpt lat="45.51202" lon="5.02037">
        <ele>294.5</ele>
        <time>2008-05-21T19:59:44Z</time>
      </trkpt>
      <trkpt lat="45.51183" lon="5.02068">
        <ele>299.1</ele>
        <time>2008-05-21T19:59:45Z</time>
      </trkpt>
      <trkpt lat="45.51189" lon="5.0212">
        <ele>304.5</ele>
        <time>2008-05-21T19:59:46Z</time>
      </trkpt>
      <trkpt lat="45.51213" lon="5.02163">
        <ele>309.6</ele>
        <time>2008-05-21T19:59:47Z</time>
      </trkpt>
      <trkpt lat="45.51222" lon="5.02256">
        <ele>318.6</ele>
        <time>2008-05-21T19:59:49Z</time>
      </trkpt>
      <trkpt lat="45.51223" lon="5.02317">
        <ele>321.7</ele>
        <time>2008-05-21T19:59:50Z</time>
      </trkpt>
      <trkpt lat="45.51203" lon="5.02367">
        <ele>320.6</ele>
        <time>2008-05-21T19:59:51Z</time>
      </trkpt>
      <trkpt lat="45.51187" lon="5.02408">
        <ele>321.8</ele>
        <time>2008-05-21T20:00:00Z</time>
      </trkpt>
      <trkpt lat="45.5117" lon="5.02449">
        <ele>326.2</ele>
        <time>2008-05-21T20:00:48Z</time>
      </trkpt>
      <trkpt lat="45.5113" lon="5.02521">
        <ele>337</ele>
        <time>2008-05-21T20:00:50Z</time>
      </trkpt>
      <trkpt lat="45.51097" lon="5.0257">
        <ele>338.6</ele>
        <time>2008-05-21T20:00:55Z</time>
      </trkpt>
      <trkpt lat="45.5108" lon="5.02614">
        <ele>342.1</ele>
        <time>2008-05-21T20:00:56Z</time>
      </trkpt>
      <trkpt lat="45.51076" lon="5.02704">
        <ele>351.4</ele>
        <time>2008-05-21T20:00:57Z</time>
      </trkpt>
      <trkpt lat="45.5108" lon="5.02803">
        <ele>356.1</ele>
        <time>2008-05-21T20:00:58Z</time>
      </trkpt>
      <trkpt lat="45.51101" lon="5.02878">
        <ele>356.5</ele>
        <time>2008-05-21T20:00:59Z</time>
      </trkpt>
      <trkpt lat="45.51131" lon="5.02943">
        <ele>355.8</ele>
        <time>2008-05-21T20:01:01Z</time>
      </trkpt>
      <trkpt lat="45.51176" lon="5.03042">
        <ele>355.9</ele>
        <time>2008-05-21T20:01:03Z</time>
      </trkpt>
      <trkpt lat="45.51194" lon="5.03123">
        <ele>358.4</ele>
        <time>2008-05-21T20:01:04Z</time>
      </trkpt>
      <trkpt lat="45.51202" lon="5.03235">
        <ele>361.5</ele>
        <time>2008-05-21T20:01:15Z</time>
      </trkpt>
      <trkpt lat="45.51159" lon="5.03265">
        <ele>363.1</ele>
        <time>2008-05-21T20:01:21Z</time>
      </trkpt>
      <trkpt lat="45.51111" lon="5.03285">
        <ele>364.7</ele>
        <time>2008-05-21T20:01:22Z</time>
      </trkpt>
      <trkpt lat="45.51088" lon="5.03239">
        <ele>362.6</ele>
        <time>2008-05-21T20:01:24Z</time>
      </trkpt>
      <trkpt lat="45.51064" lon="5.03174">
        <ele>361.9</ele>
        <time>2008-05-21T20:01:25Z</time>
      </trkpt>
      <trkpt lat="45.51064" lon="5.03174">
        <ele>361.9</ele>
        <time>2008-05-21T20:01:25Z</time>
      </trkpt>
      <trkpt lat="45.5103" lon="5.03114">
        <ele>356.1</ele>
        <time>2008-05-21T20:01:27Z</time>
      </trkpt>
      <trkpt lat="45.50991" lon="5.03064">
        <ele>352.6</ele>
        <time>2008-05-21T20:01:29Z</time>
      </trkpt>
      <trkpt lat="45.5094" lon="5.02998">
        <ele>343.8</ele>
        <time>2008-05-21T20:01:30Z</time>
      </trkpt>
      <trkpt lat="45.50906" lon="5.02951">
        <ele>333.1</ele>
        <time>2008-05-21T20:01:32Z</time>
      </trkpt>
      <trkpt lat="45.50898" lon="5.0289">
        <ele>327.7</ele>
        <time>2008-05-21T20:02:07Z</time>
      </trkpt>
      <trkpt lat="45.50869" lon="5.02869">
        <ele>319.8</ele>
        <time>2008-05-21T20:02:08Z</time>
      </trkpt>
      <trkpt lat="45.50845" lon="5.02852">
        <ele>314.5</ele>
        <time>2008-05-21T20:02:09Z</time>
      </trkpt>
      <trkpt lat="45.50813" lon="5.02873">
        <ele>310.2</ele>
        <time>2008-05-21T20:02:11Z</time>
      </trkpt>
      <trkpt lat="45.50765" lon="5.029">
        <ele>301.5</ele>
        <time>2008-05-21T20:03:00Z</time>
      </trkpt>
      <trkpt lat="45.50733" lon="5.02908">
        <ele>297.5</ele>
        <time>2008-05-21T20:03:05Z</time>
      </trkpt>
      <trkpt lat="45.50673" lon="5.02908">
        <ele>291.7</ele>
        <time>2008-05-21T20:03:07Z</time>
      </trkpt>
      <trkpt lat="45.50664" lon="5.02972">
        <ele>290.8</ele>
        <time>2008-05-21T20:03:25Z</time>
      </trkpt>
      <trkpt lat="45.50633" lon="5.03043">
        <ele>288.4</ele>
        <time>2008-05-21T20:03:27Z</time>
      </trkpt>
      <trkpt lat="45.50643" lon="5.03085">
        <ele>290.4</ele>
        <time>2008-05-21T20:03:27Z</time>
      </trkpt>
      <trkpt lat="45.5064" lon="5.0313">
        <ele>294.4</ele>
        <time>2008-05-21T20:03:28Z</time>
      </trkpt>
      <trkpt lat="45.50681" lon="5.0319">
        <ele>302</ele>
        <time>2008-05-21T20:03:29Z</time>
      </trkpt>
      <trkpt lat="45.50647" lon="5.0322">
        <ele>308.2</ele>
        <time>2008-05-21T20:03:31Z</time>
      </trkpt>
      <trkpt lat="45.50605" lon="5.03266">
        <ele>317.8</ele>
        <time>2008-05-21T20:03:33Z</time>
      </trkpt>
      <trkpt lat="45.50537" lon="5.03285">
        <ele>321.1</ele>
        <time>2008-05-21T20:03:35Z</time>
      </trkpt>
      <trkpt lat="45.50515" lon="5.0328">
        <ele>320.8</ele>
        <time>2008-05-21T20:03:36Z</time>
      </trkpt>
      <trkpt lat="45.50447" lon="5.03299">
        <ele>324</ele>
        <time>2008-05-21T20:04:33Z</time>
      </trkpt>
      <trkpt lat="45.5039" lon="5.03312">
        <ele>329.5</ele>
        <time>2008-05-21T20:04:34Z</time>
      </trkpt>
      <trkpt lat="45.50347" lon="5.03323">
        <ele>336.6</ele>
        <time>2008-05-21T20:04:35Z</time>
      </trkpt>
      <trkpt lat="45.5031" lon="5.03363">
        <ele>346.1</ele>
        <time>2008-05-21T20:04:36Z</time>
      </trkpt>
      <trkpt lat="45.50289" lon="5.03403">
        <ele>349.4</ele>
        <time>2008-05-21T20:04:37Z</time>
      </trkpt>
      <trkpt lat="45.50288" lon="5.03448">
        <ele>353.4</ele>
        <time>2008-05-21T20:04:38Z</time>
      </trkpt>
      <trkpt lat="45.50321" lon="5.03478">
        <ele>355.5</ele>
        <time>2008-05-21T20:04:39Z</time>
      </trkpt>
      <trkpt lat="45.50374" lon="5.03516">
        <ele>359.2</ele>
        <time>2008-05-21T20:04:44Z</time>
      </trkpt>
      <trkpt lat="45.50414" lon="5.03556">
        <ele>363.5</ele>
        <time>2008-05-21T20:04:45Z</time>
      </trkpt>
      <trkpt lat="45.50461" lon="5.03651">
        <ele>372.7</ele>
        <time>2008-05-21T20:04:46Z</time>
      </trkpt>
      <trkpt lat="45.50501" lon="5.03737">
        <ele>378.1</ele>
        <time>2008-05-21T20:04:47Z</time>
      </trkpt>
      <trkpt lat="45.50553" lon="5.03825">
        <ele>383</ele>
        <time>2008-05-21T20:04:48Z</time>
      </trkpt>
      <trkpt lat="45.50625" lon="5.03909">
        <ele>384.6</ele>
        <time>2008-05-21T20:04:50Z</time>
      </trkpt>
      <trkpt lat="45.50687" lon="5.03982">
        <ele>393</ele>
        <time>2008-05-21T20:04:51Z</time>
      </trkpt>
      <trkpt lat="45.50717" lon="5.04041">
        <ele>393.4</ele>
        <time>2008-05-21T20:04:52Z</time>
      </trkpt>
      <trkpt lat="45.5072" lon="5.04086">
        <ele>395.1</ele>
        <time>2008-05-21T20:04:54Z</time>
      </trkpt>
      <trkpt lat="45.50703" lon="5.04127">
        <ele>397.6</ele>
        <time>2008-05-21T20:04:55Z</time>
      </trkpt>
      <trkpt lat="45.507" lon="5.04168">
        <ele>401.3</ele>
        <time>2008-05-21T20:04:56Z</time>
      </trkpt>
      <trkpt lat="45.50714" lon="5.04246">
        <ele>406.1</ele>
        <time>2008-05-21T20:04:57Z</time>
      </trkpt>
      <trkpt lat="45.50714" lon="5.04323">
        <ele>409.2</ele>
        <time>2008-05-21T20:04:59Z</time>
      </trkpt>
      <trkpt lat="45.50678" lon="5.04327">
        <ele>406.9</ele>
        <time>2008-05-21T20:05:06Z</time>
      </trkpt>
      <trkpt lat="45.50615" lon="5.04337">
        <ele>400.7</ele>
        <time>2008-05-21T20:05:08Z</time>
      </trkpt>
      <trkpt lat="45.50576" lon="5.04347">
        <ele>395.4</ele>
        <time>2008-05-21T20:05:09Z</time>
      </trkpt>
      <trkpt lat="45.50575" lon="5.04402">
        <ele>392.9</ele>
        <time>2008-05-21T20:05:14Z</time>
      </trkpt>
      <trkpt lat="45.50558" lon="5.04442">
        <ele>390.4</ele>
        <time>2008-05-21T20:05:15Z</time>
      </trkpt>
      <trkpt lat="45.50539" lon="5.04499">
        <ele>383</ele>
        <time>2008-05-21T20:05:18Z</time>
      </trkpt>
      <trkpt lat="45.50523" lon="5.04584">
        <ele>384.1</ele>
        <time>2008-05-21T20:05:19Z</time>
      </trkpt>
      <trkpt lat="45.50526" lon="5.04652">
        <ele>381.3</ele>
        <time>2008-05-21T20:05:21Z</time>
      </trkpt>
      <trkpt lat="45.50552" lon="5.04685">
        <ele>382.2</ele>
        <time>2008-05-21T20:05:22Z</time>
      </trkpt>
      <trkpt lat="45.50624" lon="5.04714">
        <ele>380.1</ele>
        <time>2008-05-21T20:05:23Z</time>
      </trkpt>
      <trkpt lat="45.50682" lon="5.04736">
        <ele>381.4</ele>
        <time>2008-05-21T20:05:24Z</time>
      </trkpt>
      <trkpt lat="45.50714" lon="5.04776">
        <ele>381</ele>
        <time>2008-05-21T20:05:26Z</time>
      </trkpt>
      <trkpt lat="45.50745" lon="5.04813">
        <ele>387.2</ele>
        <time>2008-05-21T20:05:32Z</time>
      </trkpt>
      <trkpt lat="45.50805" lon="5.04854">
        <ele>397</ele>
        <time>2008-05-21T20:07:17Z</time>
      </trkpt>
      <trkpt lat="45.50864" lon="5.04908">
        <ele>409.1</ele>
        <time>2008-05-21T20:07:18Z</time>
      </trkpt>
      <trkpt lat="45.50916" lon="5.05006">
        <ele>414.5</ele>
        <time>2008-05-21T20:07:19Z</time>
      </trkpt>
      <trkpt lat="45.50957" lon="5.05063">
        <ele>414.2</ele>
        <time>2008-05-21T20:07:20Z</time>
      </trkpt>
      <trkpt lat="45.5092" lon="5.05106">
        <ele>418.5</ele>
        <time>2008-05-21T20:07:24Z</time>
      </trkpt>
      <trkpt lat="45.50881" lon="5.05136">
        <ele>424.6</ele>
        <time>2008-05-21T20:07:31Z</time>
      </trkpt>
      <trkpt lat="45.50887" lon="5.05171">
        <ele>424.8</ele>
        <time>2008-05-21T20:09:23Z</time>
      </trkpt>
      <trkpt lat="45.50912" lon="5.05237">
        <ele>419.5</ele>
        <time>2008-05-21T20:09:24Z</time>
      </trkpt>
      <trkpt lat="45.50926" lon="5.0533">
        <ele>412.8</ele>
        <time>2008-05-21T20:09:26Z</time>
      </trkpt>
      <trkpt lat="45.50948" lon="5.05421">
        <ele>406.7</ele>
        <time>2008-05-21T20:09:28Z</time>
      </trkpt>
      <trkpt lat="45.50927" lon="5.05462">
        <ele>402.9</ele>
        <time>2008-05-21T20:09:46Z</time>
      </trkpt>
      <trkpt lat="45.50887" lon="5.05546">
        <ele>387.4</ele>
        <time>2008-05-21T20:09:48Z</time>
      </trkpt>
      <trkpt lat="45.50913" lon="5.05582">
        <ele>389.3</ele>
        <time>2008-05-21T20:09:52Z</time>
      </trkpt>
      <trkpt lat="45.50961" lon="5.05617">
        <ele>391.5</ele>
        <time>2008-05-21T20:09:53Z</time>
      </trkpt>
      <trkpt lat="45.51023" lon="5.05658">
        <ele>388.5</ele>
        <time>2008-05-21T20:09:54Z</time>
      </trkpt>
      <trkpt lat="45.51011" lon="5.05696">
        <ele>384.5</ele>
        <time>2008-05-21T20:10:08Z</time>
      </trkpt>
      <trkpt lat="45.5101" lon="5.05738">
        <ele>384.3</ele>
        <time>2008-05-21T20:10:09Z</time>
      </trkpt>
      <trkpt lat="45.51036" lon="5.05774">
        <ele>386</ele>
        <time>2008-05-21T20:10:10Z</time>
      </trkpt>
      <trkpt lat="45.51053" lon="5.05817">
        <ele>381.3</ele>
        <time>2008-05-21T20:10:40Z</time>
      </trkpt>
      <trkpt lat="45.51053" lon="5.05817">
        <ele>381.3</ele>
        <time>2008-05-21T20:10:40Z</time>
      </trkpt>
      <trkpt lat="45.51054" lon="5.05871">
        <ele>374.8</ele>
        <time>2008-05-21T20:10:41Z</time>
      </trkpt>
      <trkpt lat="45.51074" lon="5.05901">
        <ele>377.9</ele>
        <time>2008-05-21T20:10:42Z</time>
      </trkpt>
      <trkpt lat="45.51106" lon="5.05951">
        <ele>380.7</ele>
        <time>2008-05-21T20:10:44Z</time>
      </trkpt>
      <trkpt lat="45.51152" lon="5.05995">
        <ele>380.3</ele>
        <time>2008-05-21T20:10:45Z</time>
      </trkpt>
      <trkpt lat="45.51218" lon="5.06004">
        <ele>380.8</ele>
        <time>2008-05-21T20:10:46Z</time>
      </trkpt>
      <trkpt lat="45.51278" lon="5.06024">
        <ele>382.1</ele>
        <time>2008-05-21T20:10:48Z</time>
      </trkpt>
      <trkpt lat="45.5132" lon="5.06064">
        <ele>379.6</ele>
        <time>2008-05-21T20:10:49Z</time>
      </trkpt>
      <trkpt lat="45.51356" lon="5.0613">
        <ele>382.8</ele>
        <time>2008-05-21T20:10:55Z</time>
      </trkpt>
      <trkpt lat="45.51389" lon="5.06176">
        <ele>382.6</ele>
        <time>2008-05-21T20:10:57Z</time>
      </trkpt>
      <trkpt lat="45.51428" lon="5.06217">
        <ele>382.9</ele>
        <time>2008-05-21T20:10:58Z</time>
      </trkpt>
      <trkpt lat="45.51472" lon="5.06273">
        <ele>380.6</ele>
        <time>2008-05-21T20:10:59Z</time>
      </trkpt>
      <trkpt lat="45.5149" lon="5.06265">
        <ele>382.8</ele>
        <time>2008-05-21T20:11:11Z</time>
      </trkpt>
      <trkpt lat="45.51523" lon="5.06206">
        <ele>391.8</ele>
        <time>2008-05-21T20:11:12Z</time>
      </trkpt>
      <trkpt lat="45.51544" lon="5.06168">
        <ele>402.4</ele>
        <time>2008-05-21T20:11:15Z</time>
      </trkpt>
      <trkpt lat="45.51572" lon="5.06138">
        <ele>417.1</ele>
        <time>2008-05-21T20:11:25Z</time>
      </trkpt>
      <trkpt lat="45.51614" lon="5.06089">
        <ele>420.3</ele>
        <time>2008-05-21T20:11:26Z</time>
      </trkpt>
      <trkpt lat="45.51634" lon="5.06074">
        <ele>420.8</ele>
        <time>2008-05-21T20:11:27Z</time>
      </trkpt>
      <trkpt lat="45.51699" lon="5.06083">
        <ele>422.2</ele>
        <time>2008-05-21T20:11:29Z</time>
      </trkpt>
      <trkpt lat="45.51751" lon="5.06108">
        <ele>422.1</ele>
        <time>2008-05-21T20:11:30Z</time>
      </trkpt>
      <trkpt lat="45.51822" lon="5.06023">
        <ele>426</ele>
        <time>2008-05-21T20:11:43Z</time>
      </trkpt>
      <trkpt lat="45.51848" lon="5.05985">
        <ele>425.7</ele>
        <time>2008-05-21T20:11:44Z</time>
      </trkpt>
      <trkpt lat="45.51919" lon="5.05938">
        <ele>424.2</ele>
        <time>2008-05-21T20:11:45Z</time>
      </trkpt>
      <trkpt lat="45.51974" lon="5.05883">
        <ele>422.7</ele>
        <time>2008-05-21T20:11:46Z</time>
      </trkpt>
      <trkpt lat="45.52005" lon="5.05817">
        <ele>421.1</ele>
        <time>2008-05-21T20:11:48Z</time>
      </trkpt>
      <trkpt lat="45.52103" lon="5.05765">
        <ele>416.2</ele>
        <time>2008-05-21T20:12:01Z</time>
      </trkpt>
      <trkpt lat="45.52151" lon="5.05729">
        <ele>410</ele>
        <time>2008-05-21T20:12:02Z</time>
      </trkpt>
      <trkpt lat="45.52198" lon="5.0567">
        <ele>402.6</ele>
        <time>2008-05-21T20:12:03Z</time>
      </trkpt>
      <trkpt lat="45.52282" lon="5.05563">
        <ele>392</ele>
        <time>2008-05-21T20:12:05Z</time>
      </trkpt>
      <trkpt lat="45.52279" lon="5.05492">
        <ele>388.6</ele>
        <time>2008-05-21T20:12:11Z</time>
      </trkpt>
      <trkpt lat="45.52265" lon="5.05415">
        <ele>386.2</ele>
        <time>2008-05-21T20:12:12Z</time>
      </trkpt>
      <trkpt lat="45.52258" lon="5.05328">
        <ele>379</ele>
        <time>2008-05-21T20:12:13Z</time>
      </trkpt>
      <trkpt lat="45.52275" lon="5.05287">
        <ele>374</ele>
        <time>2008-05-21T20:12:14Z</time>
      </trkpt>
      <trkpt lat="45.52289" lon="5.05253">
        <ele>370.9</ele>
        <time>2008-05-21T20:12:15Z</time>
      </trkpt>
      <trkpt lat="45.52293" lon="5.05198">
        <ele>367.7</ele>
        <time>2008-05-21T20:12:16Z</time>
      </trkpt>
      <trkpt lat="45.52315" lon="5.05139">
        <ele>362.3</ele>
        <time>2008-05-21T20:12:17Z</time>
      </trkpt>
      <trkpt lat="45.52343" lon="5.05067">
        <ele>356.3</ele>
        <time>2008-05-21T20:12:18Z</time>
      </trkpt>
      <trkpt lat="45.5236" lon="5.0501">
        <ele>352.7</ele>
        <time>2008-05-21T20:12:19Z</time>
      </trkpt>
      <trkpt lat="45.52369" lon="5.04937">
        <ele>348.2</ele>
        <time>2008-05-21T20:12:20Z</time>
      </trkpt>
      <trkpt lat="45.52393" lon="5.04883">
        <ele>345.4</ele>
        <time>2008-05-21T20:12:21Z</time>
      </trkpt>
      <trkpt lat="45.52439" lon="5.04851">
        <ele>338.2</ele>
        <time>2008-05-21T20:12:22Z</time>
      </trkpt>
      <trkpt lat="45.52484" lon="5.0484">
        <ele>328.5</ele>
        <time>2008-05-21T20:12:23Z</time>
      </trkpt>
      <trkpt lat="45.52536" lon="5.04843">
        <ele>318.4</ele>
        <time>2008-05-21T20:12:24Z</time>
      </trkpt>
      <trkpt lat="45.52554" lon="5.04815">
        <ele>313.2</ele>
        <time>2008-05-21T20:12:26Z</time>
      </trkpt>
      <trkpt lat="45.52543" lon="5.04734">
        <ele>309.2</ele>
        <time>2008-05-21T20:12:28Z</time>
      </trkpt>
      <trkpt lat="45.52547" lon="5.04661">
        <ele>305.4</ele>
        <time>2008-05-21T20:12:29Z</time>
      </trkpt>
      <trkpt lat="45.52573" lon="5.04617">
        <ele>302.9</ele>
        <time>2008-05-21T20:12:44Z</time>
      </trkpt>
      <trkpt lat="45.52587" lon="5.04573">
        <ele>301.9</ele>
        <time>2008-05-21T20:12:45Z</time>
      </trkpt>
      <trkpt lat="45.52584" lon="5.04528">
        <ele>302.1</ele>
        <time>2008-05-21T20:12:46Z</time>
      </trkpt>
      <trkpt lat="45.52556" lon="5.04488">
        <ele>303.7</ele>
        <time>2008-05-21T20:12:47Z</time>
      </trkpt>
      <trkpt lat="45.5252" lon="5.04458">
        <ele>306.2</ele>
        <time>2008-05-21T20:12:48Z</time>
      </trkpt>
      <trkpt lat="45.52483" lon="5.04405">
        <ele>308.3</ele>
        <time>2008-05-21T20:12:49Z</time>
      </trkpt>
      <trkpt lat="45.52449" lon="5.04355">
        <ele>306.9</ele>
        <time>2008-05-21T20:12:56Z</time>
      </trkpt>
      <trkpt lat="45.524" lon="5.04308">
        <ele>301.7</ele>
        <time>2008-05-21T20:12:57Z</time>
      </trkpt>
      <trkpt lat="45.52382" lon="5.0424">
        <ele>300.7</ele>
        <time>2008-05-21T20:12:59Z</time>
      </trkpt>
      <trkpt lat="45.52397" lon="5.04154">
        <ele>301.3</ele>
        <time>2008-05-21T20:13:00Z</time>
      </trkpt>
      <trkpt lat="45.52399" lon="5.04068">
        <ele>299.6</ele>
        <time>2008-05-21T20:13:02Z</time>
      </trkpt>
      <trkpt lat="45.5237" lon="5.03999">
        <ele>295.9</ele>
        <time>2008-05-21T20:13:03Z</time>
      </trkpt>
      <trkpt lat="45.52324" lon="5.03939">
        <ele>291.3</ele>
        <time>2008-05-21T20:13:04Z</time>
      </trkpt>
      <trkpt lat="45.52313" lon="5.0391">
        <ele>290.7</ele>
        <time>2008-05-21T20:13:16Z</time>
      </trkpt>
      <trkpt lat="45.52289" lon="5.03873">
        <ele>289.9</ele>
        <time>2008-05-21T20:13:17Z</time>
      </trkpt>
      <trkpt lat="45.52252" lon="5.03849">
        <ele>289</ele>
        <time>2008-05-21T20:13:18Z</time>
      </trkpt>
      <trkpt lat="45.52232" lon="5.03816">
        <ele>290.7</ele>
        <time>2008-05-21T20:13:19Z</time>
      </trkpt>
      <trkpt lat="45.52216" lon="5.03767">
        <ele>289.8</ele>
        <time>2008-05-21T20:13:20Z</time>
      </trkpt>
      <trkpt lat="45.52206" lon="5.03706">
        <ele>287.7</ele>
        <time>2008-05-21T20:13:22Z</time>
      </trkpt>
      <trkpt lat="45.52197" lon="5.03603">
        <ele>285.2</ele>
        <time>2008-05-21T20:13:23Z</time>
      </trkpt>
      <trkpt lat="45.52197" lon="5.03529">
        <ele>285.1</ele>
        <time>2008-05-21T20:13:24Z</time>
      </trkpt>
      <trkpt lat="45.52237" lon="5.03538">
        <ele>286.7</ele>
        <time>2008-05-21T20:13:25Z</time>
      </trkpt>
      <trkpt lat="45.52277" lon="5.03549">
        <ele>289.2</ele>
        <time>2008-05-21T20:13:26Z</time>
      </trkpt>
      <trkpt lat="45.52296" lon="5.03598">
        <ele>292.2</ele>
        <time>2008-05-21T20:13:33Z</time>
      </trkpt>
      <trkpt lat="45.52318" lon="5.03635">
        <ele>298.5</ele>
        <time>2008-05-21T20:13:34Z</time>
      </trkpt>
      <trkpt lat="45.52338" lon="5.03645">
        <ele>299</ele>
        <time>2008-05-21T20:13:34Z</time>
      </trkpt>
      <trkpt lat="45.52357" lon="5.03697">
        <ele>306.2</ele>
        <time>2008-05-21T20:13:35Z</time>
      </trkpt>
      <trkpt lat="45.52407" lon="5.03761">
        <ele>311</ele>
        <time>2008-05-21T20:13:36Z</time>
      </trkpt>
      <trkpt lat="45.52446" lon="5.03817">
        <ele>315.7</ele>
        <time>2008-05-21T20:13:37Z</time>
      </trkpt>
      <trkpt lat="45.52465" lon="5.03872">
        <ele>321.5</ele>
        <time>2008-05-21T20:13:40Z</time>
      </trkpt>
      <trkpt lat="45.52481" lon="5.03934">
        <ele>325.1</ele>
        <time>2008-05-21T20:13:41Z</time>
      </trkpt>
      <trkpt lat="45.52489" lon="5.03989">
        <ele>330.1</ele>
        <time>2008-05-21T20:13:43Z</time>
      </trkpt>
      <trkpt lat="45.52527" lon="5.04013">
        <ele>333.9</ele>
        <time>2008-05-21T20:13:45Z</time>
      </trkpt>
      <trkpt lat="45.52607" lon="5.04056">
        <ele>339.8</ele>
        <time>2008-05-21T20:13:49Z</time>
      </trkpt>
      <trkpt lat="45.52653" lon="5.04097">
        <ele>342</ele>
        <time>2008-05-21T20:13:50Z</time>
      </trkpt>
      <trkpt lat="45.52715" lon="5.04132">
        <ele>340.8</ele>
        <time>2008-05-21T20:13:51Z</time>
      </trkpt>
      <trkpt lat="45.52784" lon="5.04167">
        <ele>341.2</ele>
        <time>2008-05-21T20:13:53Z</time>
      </trkpt>
      <trkpt lat="45.52838" lon="5.0416">
        <ele>343.4</ele>
        <time>2008-05-21T20:14:06Z</time>
      </trkpt>
      <trkpt lat="45.52897" lon="5.04141">
        <ele>347.9</ele>
        <time>2008-05-21T20:14:07Z</time>
      </trkpt>
      <trkpt lat="45.52954" lon="5.04112">
        <ele>351.7</ele>
        <time>2008-05-21T20:14:08Z</time>
      </trkpt>
      <trkpt lat="45.52993" lon="5.04091">
        <ele>352.3</ele>
        <time>2008-05-21T20:14:09Z</time>
      </trkpt>
      <trkpt lat="45.53052" lon="5.04075">
        <ele>355.4</ele>
        <time>2008-05-21T20:14:10Z</time>
      </trkpt>
      <trkpt lat="45.53057" lon="5.04053">
        <ele>355.4</ele>
        <time>2008-05-21T20:14:11Z</time>
      </trkpt>
      <trkpt lat="45.53042" lon="5.04024">
        <ele>357.5</ele>
        <time>2008-05-21T20:14:11Z</time>
      </trkpt>
      <trkpt lat="45.53015" lon="5.04">
        <ele>358.1</ele>
        <time>2008-05-21T20:14:13Z</time>
      </trkpt>
      <trkpt lat="45.52949" lon="5.03939">
        <ele>358.8</ele>
        <time>2008-05-21T20:14:14Z</time>
      </trkpt>
      <trkpt lat="45.52987" lon="5.03896">
        <ele>364.2</ele>
        <time>2008-05-21T20:14:45Z</time>
      </trkpt>
      <trkpt lat="45.53016" lon="5.03872">
        <ele>367.8</ele>
        <time>2008-05-21T20:14:47Z</time>
      </trkpt>
      <trkpt lat="45.53052" lon="5.03896">
        <ele>368.6</ele>
        <time>2008-05-21T20:14:47Z</time>
      </trkpt>
      <trkpt lat="45.53077" lon="5.03872">
        <ele>369.9</ele>
        <time>2008-05-21T20:14:48Z</time>
      </trkpt>
      <trkpt lat="45.53078" lon="5.03843">
        <ele>370</ele>
        <time>2008-05-21T20:14:49Z</time>
      </trkpt>
      <trkpt lat="45.53101" lon="5.03828">
        <ele>369.9</ele>
        <time>2008-05-21T20:14:50Z</time>
      </trkpt>
      <trkpt lat="45.53139" lon="5.03846">
        <ele>370</ele>
        <time>2008-05-21T20:14:51Z</time>
      </trkpt>
      <trkpt lat="45.53194" lon="5.03868">
        <ele>371.2</ele>
        <time>2008-05-21T20:14:53Z</time>
      </trkpt>
      <trkpt lat="45.53259" lon="5.03871">
        <ele>370.4</ele>
        <time>2008-05-21T20:15:01Z</time>
      </trkpt>
      <trkpt lat="45.53307" lon="5.03877">
        <ele>369.2</ele>
        <time>2008-05-21T20:15:03Z</time>
      </trkpt>
      <trkpt lat="45.53342" lon="5.03885">
        <ele>369.9</ele>
        <time>2008-05-21T20:15:09Z</time>
      </trkpt>
      <trkpt lat="45.53407" lon="5.03831">
        <ele>372.7</ele>
        <time>2008-05-21T20:15:14Z</time>
      </trkpt>
      <trkpt lat="45.53386" lon="5.0375">
        <ele>373</ele>
        <time>2008-05-21T20:15:18Z</time>
      </trkpt>
      <trkpt lat="45.53365" lon="5.03685">
        <ele>373</ele>
        <time>2008-05-21T20:15:20Z</time>
      </trkpt>
      <trkpt lat="45.5336" lon="5.0364">
        <ele>372.9</ele>
        <time>2008-05-21T20:15:21Z</time>
      </trkpt>
      <trkpt lat="45.53341" lon="5.03594">
        <ele>372.3</ele>
        <time>2008-05-21T20:15:22Z</time>
      </trkpt>
      <trkpt lat="45.53314" lon="5.03561">
        <ele>372.1</ele>
        <time>2008-05-21T20:15:28Z</time>
      </trkpt>
      <trkpt lat="45.53281" lon="5.03527">
        <ele>374</ele>
        <time>2008-05-21T20:15:30Z</time>
      </trkpt>
      <trkpt lat="45.5326" lon="5.03494">
        <ele>375.2</ele>
        <time>2008-05-21T20:15:33Z</time>
      </trkpt>
      <trkpt lat="45.53243" lon="5.03461">
        <ele>376.1</ele>
        <time>2008-05-21T20:15:41Z</time>
      </trkpt>
      <trkpt lat="45.53291" lon="5.03409">
        <ele>379.4</ele>
        <time>2008-05-21T20:15:43Z</time>
      </trkpt>
      <trkpt lat="45.53317" lon="5.03381">
        <ele>381.3</ele>
        <time>2008-05-21T20:15:44Z</time>
      </trkpt>
      <trkpt lat="45.53381" lon="5.03311">
        <ele>377.8</ele>
        <time>2008-05-21T20:15:47Z</time>
      </trkpt>
    </trkseg>
  </trk>
</gpx>